createdAt,value
2023-04-17T13:36:02.713Z,2.50
2023-04-17T13:38:29.798Z,3.80
2023-04-17T13:40:55.735Z,3.50
2023-04-17T13:43:22.182Z,2.30
2023-04-17T13:45:49.087Z,3.20
2023-04-17T13:48:15.511Z,2.20
2023-04-17T13:50:42.034Z,3.70
2023-04-17T13:53:09.506Z,3.60
2023-04-17T13:55:37.092Z,2.50
2023-04-17T13:58:03.174Z,4.60
2023-04-17T14:00:29.755Z,2.50
2023-04-17T14:02:55.850Z,3.50
2023-04-17T14:05:22.256Z,2.40
2023-04-17T14:07:48.508Z,5.10
2023-04-17T14:10:14.575Z,2.50
2023-04-17T14:12:40.927Z,3.60
2023-04-17T14:15:07.592Z,3.50
2023-04-17T14:17:37.156Z,4.00
2023-04-17T14:20:03.586Z,4.90
2023-04-17T14:22:30.443Z,5.20
2023-04-17T14:24:56.495Z,5.60
2023-04-17T14:27:22.644Z,3.50
2023-04-17T14:29:48.637Z,4.60
2023-04-17T14:32:14.628Z,2.50
2023-04-17T14:34:40.696Z,3.60
2023-04-17T14:37:07.079Z,2.40
2023-04-17T14:39:33.981Z,3.00
2023-04-17T14:42:02.074Z,2.10
2023-04-17T14:44:28.687Z,3.10
2023-04-17T14:46:56.110Z,2.10
2023-04-17T14:49:22.142Z,4.30
2023-04-17T14:51:48.496Z,1.70
2023-04-17T14:54:15.678Z,1.30
2023-04-17T14:56:42.013Z,2.00
2023-04-17T14:59:08.087Z,4.20
2023-04-17T15:01:34.896Z,3.50
2023-04-17T15:04:01.289Z,4.50
2023-04-17T15:06:27.563Z,6.20
2023-04-17T15:08:53.605Z,3.60
2023-04-17T15:11:20.290Z,3.40
2023-04-17T15:13:46.423Z,2.20
2023-04-17T15:16:12.425Z,2.30
2023-04-17T15:18:38.767Z,2.30
2023-04-17T15:21:05.368Z,1.60
2023-04-17T15:23:33.774Z,2.30
2023-04-17T15:26:00.644Z,3.30
2023-04-17T15:28:29.791Z,3.70
2023-04-17T15:30:56.275Z,2.00
2023-04-17T15:33:22.383Z,1.50
2023-04-17T15:35:55.541Z,3.80
2023-04-17T15:38:22.038Z,2.90
2023-04-17T15:40:48.046Z,3.30
2023-04-17T15:43:14.252Z,5.60
2023-04-17T15:45:44.069Z,6.00
2023-04-17T15:48:11.086Z,5.20
2023-04-17T15:50:37.149Z,3.50
2023-04-17T15:53:03.215Z,4.50
2023-04-17T15:55:29.527Z,6.10
2023-04-17T15:57:55.736Z,4.60
2023-04-17T16:00:21.767Z,4.80
2023-04-17T16:02:48.458Z,3.30
2023-04-17T16:05:15.067Z,3.80
2023-04-17T16:07:41.372Z,4.20
2023-04-17T16:10:13.069Z,3.20
2023-04-17T16:12:45.671Z,2.90
2023-04-17T16:15:13.282Z,6.30
2023-04-17T16:17:40.988Z,5.60
2023-04-17T16:20:07.645Z,4.20
2023-04-17T16:22:34.302Z,4.90
2023-04-17T16:25:01.153Z,5.50
2023-04-17T16:27:27.395Z,3.60
2023-04-17T16:29:53.386Z,5.20
2023-04-17T16:32:19.926Z,7.00
2023-04-17T16:34:46.577Z,6.90
2023-04-17T16:37:14.148Z,7.80
2023-04-17T16:39:40.470Z,6.00
2023-04-17T16:42:06.736Z,5.60
2023-04-17T16:44:32.884Z,6.30
2023-04-17T16:47:12.690Z,8.30
2023-04-17T16:49:40.317Z,6.00
2023-04-17T16:52:06.366Z,5.80
2023-04-17T16:54:32.339Z,9.40
2023-04-17T16:56:58.720Z,10.90
2023-04-17T16:59:24.701Z,11.20
2023-04-17T17:01:51.884Z,9.50
2023-04-17T17:04:18.299Z,10.00
2023-04-17T17:06:44.586Z,12.50
2023-04-17T17:09:10.718Z,9.60
2023-04-17T17:11:37.005Z,9.60
2023-04-17T17:14:02.972Z,11.60
2023-04-17T17:16:29.084Z,11.30
2023-04-17T17:18:55.678Z,14.30
2023-04-17T17:21:21.660Z,12.80
2023-04-17T17:23:48.479Z,20.80
2023-04-17T17:26:16.396Z,19.60
2023-04-17T17:28:42.397Z,21.30
2023-04-17T17:31:08.411Z,22.40
2023-04-17T17:33:35.038Z,27.20
2023-04-17T17:36:01.412Z,23.90
2023-04-17T17:38:27.989Z,22.60
2023-04-17T17:40:55.427Z,20.30
2023-04-17T17:43:21.803Z,16.20
2023-04-17T17:45:48.160Z,16.40
2023-04-17T17:48:19.575Z,13.90
2023-04-17T17:50:45.635Z,16.00
2023-04-17T17:53:12.306Z,13.50
2023-04-17T17:55:38.646Z,13.90
2023-04-17T17:58:05.354Z,9.50
2023-04-17T18:00:31.683Z,10.20
2023-04-17T18:02:58.104Z,9.00
2023-04-17T18:05:24.230Z,9.70
2023-04-17T18:07:50.502Z,9.30
2023-04-17T18:10:16.798Z,10.10
2023-04-17T18:12:42.827Z,8.00
2023-04-17T18:15:09.337Z,8.70
2023-04-17T18:17:36.141Z,11.40
2023-04-17T18:20:02.185Z,9.60
2023-04-17T18:22:28.820Z,11.30
2023-04-17T18:24:54.998Z,11.10
2023-04-17T18:27:21.784Z,11.80
2023-04-17T18:29:47.951Z,10.60
2023-04-17T18:32:14.234Z,13.40
2023-04-17T18:34:40.173Z,14.30
2023-04-17T18:37:06.220Z,17.20
2023-04-17T18:39:32.762Z,13.20
2023-04-17T18:41:58.987Z,13.60
2023-04-17T18:44:25.038Z,13.20
2023-04-17T18:46:51.364Z,13.70
2023-04-17T18:49:17.417Z,12.10
2023-04-17T18:51:49.537Z,12.20
2023-04-17T18:54:18.887Z,15.50
2023-04-17T18:56:44.959Z,13.20
2023-04-17T18:59:11.464Z,14.70
2023-04-17T19:01:37.986Z,11.00
2023-04-17T19:04:04.152Z,12.70
2023-04-17T19:06:30.516Z,12.20
2023-04-17T19:08:56.650Z,10.70
2023-04-17T19:11:23.286Z,9.60
2023-04-17T19:13:49.532Z,7.70
2023-04-17T19:16:15.844Z,7.60
2023-04-17T19:18:41.934Z,6.80
2023-04-17T19:21:07.953Z,8.10
2023-04-17T19:23:35.854Z,6.80
2023-04-17T19:26:01.927Z,6.40
2023-04-17T19:28:28.077Z,7.10
2023-04-17T19:30:55.422Z,5.70
2023-04-17T19:33:22.268Z,6.00
2023-04-17T19:35:49.286Z,4.90
2023-04-17T19:38:17.298Z,5.90
2023-04-17T19:41:06.107Z,6.40
2023-04-17T19:43:32.608Z,5.50
2023-04-17T19:45:58.683Z,7.20
2023-04-17T19:48:25.085Z,7.40
2023-04-17T19:50:52.686Z,6.30
2023-04-17T19:53:20.056Z,7.80
2023-04-17T19:55:46.005Z,5.70
2023-04-17T19:58:12.237Z,6.20
2023-04-17T20:00:38.823Z,6.20
2023-04-17T20:03:04.980Z,5.40
2023-04-17T20:05:31.489Z,6.30
2023-04-17T20:07:57.813Z,5.20
2023-04-17T20:10:23.827Z,4.50
2023-04-17T20:12:50.096Z,6.00
2023-04-17T20:15:19.088Z,4.90
2023-04-17T20:20:14.749Z,4.90
2023-04-17T20:22:41.933Z,5.50
2023-04-17T20:25:08.185Z,4.80
2023-04-17T20:27:34.400Z,5.00
2023-04-17T20:30:00.393Z,7.20
2023-04-17T20:32:26.429Z,6.20
2023-04-17T20:34:52.492Z,4.90
2023-04-17T20:37:18.472Z,4.30
2023-04-17T20:39:44.526Z,5.40
2023-04-17T20:42:10.672Z,4.60
2023-04-17T20:44:36.873Z,4.50
2023-04-17T20:47:02.944Z,4.70
2023-04-17T20:49:29.239Z,6.40
2023-04-17T20:51:55.228Z,6.90
2023-04-17T20:54:22.518Z,5.90
2023-04-17T20:56:48.512Z,7.40
2023-04-17T20:59:14.489Z,6.00
2023-04-17T21:01:40.589Z,6.30
2023-04-17T21:04:06.653Z,6.30
2023-04-17T21:06:33.856Z,9.70
2023-04-17T21:08:59.979Z,9.20
2023-04-17T21:11:26.033Z,9.80
2023-04-17T21:13:52.560Z,9.80
2023-04-17T21:16:18.643Z,8.40
2023-04-17T21:18:44.865Z,5.80
2023-04-17T21:21:10.851Z,6.60
2023-04-17T21:23:36.796Z,7.30
2023-04-17T21:26:03.008Z,5.30
2023-04-17T21:28:29.167Z,5.30
2023-04-17T21:30:55.208Z,5.60
2023-04-17T21:33:21.725Z,5.60
2023-04-17T21:35:47.719Z,6.80
2023-04-17T21:38:14.665Z,8.40
2023-04-17T21:40:50.540Z,5.00
2023-04-17T21:43:17.858Z,5.30
2023-04-17T21:45:43.958Z,4.70
2023-04-17T21:48:10.168Z,4.70
2023-04-17T21:50:36.228Z,5.50
2023-04-17T21:53:02.333Z,4.80
2023-04-17T21:55:28.857Z,7.10
2023-04-17T21:57:54.839Z,7.10
2023-04-17T22:00:21.185Z,5.70
2023-04-17T22:02:47.369Z,5.50
2023-04-17T22:05:13.505Z,4.30
2023-04-17T22:07:51.773Z,5.10
2023-04-17T22:10:20.766Z,5.10
2023-04-17T22:12:46.836Z,5.90
2023-04-17T22:15:12.796Z,6.90
2023-04-17T22:17:38.802Z,6.10
2023-04-17T22:20:05.722Z,7.10
2023-04-17T22:22:31.942Z,7.40
2023-04-17T22:24:57.961Z,8.50
2023-04-17T22:27:24.059Z,5.60
2023-04-17T22:29:50.260Z,6.10
2023-04-17T22:32:16.257Z,5.60
2023-04-17T22:34:46.955Z,6.70
2023-04-17T22:37:12.937Z,7.90
2023-04-17T22:39:38.920Z,4.80
2023-04-17T22:42:04.923Z,6.80
2023-04-17T22:44:31.896Z,7.60
2023-04-17T22:46:57.928Z,9.30
2023-04-17T22:49:24.705Z,10.60
2023-04-17T22:51:50.798Z,10.90
2023-04-17T22:54:22.604Z,10.00
2023-04-17T22:56:49.416Z,9.00
2023-04-17T22:59:15.358Z,7.00
2023-04-17T23:01:41.456Z,9.30
2023-04-17T23:04:08.622Z,7.50
2023-04-17T23:06:35.072Z,6.60
2023-04-17T23:09:01.085Z,6.60
2023-04-17T23:11:27.082Z,8.00
2023-04-17T23:13:53.042Z,10.10
2023-04-17T23:16:19.293Z,8.80
2023-04-17T23:18:45.358Z,8.20
2023-04-17T23:21:11.299Z,9.00
2023-04-17T23:23:37.444Z,8.70
2023-04-17T23:26:03.666Z,8.50
2023-04-17T23:28:30.075Z,10.30
2023-04-17T23:32:04.571Z,9.40
2023-04-17T23:34:31.616Z,9.10
2023-04-17T23:36:58.416Z,9.40
2023-04-17T23:39:25.332Z,10.60
2023-04-17T23:41:52.178Z,8.30
2023-04-17T23:44:19.290Z,10.90
2023-04-17T23:46:46.839Z,12.00
2023-04-17T23:49:13.702Z,10.00
2023-04-17T23:51:40.463Z,10.40
2023-04-17T23:54:08.715Z,10.60
2023-04-17T23:56:36.274Z,10.20
2023-04-17T23:59:03.045Z,9.00
